createdAt,value
2023-01-27T00:00:06.689Z,19.98
2023-01-27T00:03:11.776Z,21.63
2023-01-27T00:06:13.292Z,23.02
2023-01-27T00:09:15.256Z,21.52
2023-01-27T00:12:39.903Z,16.45
2023-01-27T00:15:41.442Z,16.35
2023-01-27T00:18:42.934Z,22.35
2023-01-27T00:22:03.129Z,24.30
2023-01-27T00:25:04.952Z,22.48
2023-01-27T00:28:08.312Z,30.83
2023-01-27T00:31:29.372Z,25.65
2023-01-27T00:34:30.831Z,23.63
2023-01-27T00:37:32.287Z,27.90
2023-01-27T00:40:33.776Z,29.95
2023-01-27T00:43:35.236Z,28.40
2023-01-27T00:46:36.753Z,22.77
2023-01-27T00:49:38.254Z,25.50
2023-01-27T00:52:39.854Z,22.77
2023-01-27T00:55:41.766Z,20.35
2023-01-27T00:58:43.238Z,27.60
2023-01-27T01:01:44.856Z,28.58
2023-01-27T01:04:46.405Z,29.80
2023-01-27T01:07:47.924Z,31.38
2023-01-27T01:10:49.363Z,31.90
2023-01-27T01:13:50.805Z,24.83
2023-01-27T01:16:52.253Z,28.35
2023-01-27T01:19:53.800Z,31.95
2023-01-27T01:22:55.366Z,28.45
2023-01-27T01:25:57.259Z,27.75
2023-01-27T01:28:58.781Z,34.43
2023-01-27T01:32:00.457Z,27.00
2023-01-27T01:35:01.907Z,29.05
2023-01-27T01:38:03.344Z,26.83
2023-01-27T01:41:05.812Z,26.90
2023-01-27T01:44:42.924Z,29.17
2023-01-27T01:47:44.385Z,29.25
2023-01-27T01:50:49.244Z,26.65
2023-01-27T01:54:00.533Z,28.48
2023-01-27T01:57:08.583Z,27.77
2023-01-27T02:00:10.669Z,28.02
2023-01-27T02:03:12.180Z,31.67
2023-01-27T02:06:13.743Z,21.30
2023-01-27T02:09:15.207Z,25.08
2023-01-27T02:12:16.647Z,26.98
2023-01-27T02:15:18.166Z,29.00
2023-01-27T02:18:19.627Z,28.65
2023-01-27T02:21:21.095Z,29.58
2023-01-27T02:24:25.195Z,27.45
2023-01-27T02:27:26.688Z,26.77
2023-01-27T02:30:28.189Z,26.20
2023-01-27T02:33:29.683Z,27.70
2023-01-27T02:36:32.517Z,27.05
2023-01-27T02:42:36.598Z,25.35
2023-01-27T02:45:40.587Z,25.50
2023-01-27T02:48:42.198Z,32.40
2023-01-27T02:51:43.803Z,26.25
2023-01-27T02:54:45.293Z,28.15
2023-01-27T02:57:46.770Z,27.13
2023-01-27T03:00:48.258Z,27.92
2023-01-27T03:03:51.242Z,24.23
2023-01-27T03:06:52.708Z,28.02
2023-01-27T03:09:54.189Z,22.05
2023-01-27T03:12:55.677Z,26.15
2023-01-27T03:16:18.868Z,27.05
2023-01-27T03:22:21.947Z,27.63
2023-01-27T03:25:23.447Z,27.75
2023-01-27T03:28:24.875Z,25.05
2023-01-27T03:31:26.465Z,27.40
2023-01-27T03:34:29.841Z,25.35
2023-01-27T03:37:50.257Z,25.70
2023-01-27T03:41:11.784Z,26.05
2023-01-27T03:44:32.013Z,27.45
2023-01-27T03:47:33.540Z,27.83
2023-01-27T03:50:38.298Z,23.13
2023-01-27T03:53:40.194Z,33.45
2023-01-27T03:56:41.860Z,26.13
2023-01-27T03:59:44.177Z,27.35
2023-01-27T04:03:04.368Z,19.25
2023-01-27T04:06:25.405Z,32.45
2023-01-27T04:09:31.656Z,24.90
2023-01-27T04:12:33.181Z,21.77
2023-01-27T04:15:34.696Z,23.70
2023-01-27T04:18:37.925Z,27.95
2023-01-27T04:21:39.432Z,19.88
2023-01-27T04:24:40.894Z,25.00
2023-01-27T04:27:44.085Z,24.15
2023-01-27T04:30:45.643Z,16.58
2023-01-27T04:33:47.686Z,25.17
2023-01-27T04:36:49.226Z,23.57
2023-01-27T04:39:51.880Z,25.17
2023-01-27T04:42:55.167Z,29.00
2023-01-27T04:45:56.862Z,27.73
2023-01-27T04:48:58.925Z,29.55
2023-01-27T04:52:00.571Z,17.10
2023-01-27T04:55:02.664Z,22.80
2023-01-27T04:58:05.055Z,19.08
2023-01-27T05:01:06.677Z,25.00
2023-01-27T05:04:09.623Z,23.63
2023-01-27T05:07:11.738Z,27.42
2023-01-27T05:10:14.241Z,30.08
2023-01-27T05:13:15.796Z,25.88
2023-01-27T05:16:21.913Z,23.70
2023-01-27T05:19:24.340Z,30.88
2023-01-27T05:22:27.274Z,26.27
2023-01-27T05:25:29.025Z,27.23
2023-01-27T05:28:30.760Z,23.65
2023-01-27T05:31:32.516Z,35.50
2023-01-27T05:34:34.187Z,31.97
2023-01-27T05:37:35.712Z,28.63
2023-01-27T05:40:37.460Z,31.17
2023-01-27T05:43:40.502Z,28.42
2023-01-27T05:46:43.026Z,28.95
2023-01-27T05:49:45.095Z,27.38
2023-01-27T05:52:46.883Z,26.88
2023-01-27T05:55:49.213Z,22.02
2023-01-27T05:58:51.406Z,22.67
2023-01-27T06:01:53.072Z,29.60
2023-01-27T06:04:54.982Z,30.50
2023-01-27T06:07:57.705Z,21.77
2023-01-27T06:14:00.774Z,25.98
2023-01-27T06:17:02.224Z,22.58
2023-01-27T06:20:03.853Z,28.30
2023-01-27T06:23:06.139Z,26.20
2023-01-27T06:26:11.477Z,27.85
2023-01-27T06:29:12.903Z,20.30
2023-01-27T06:32:14.375Z,22.95
2023-01-27T06:35:15.933Z,21.27
2023-01-27T06:38:17.435Z,21.23
2023-01-27T06:41:18.925Z,24.40
2023-01-27T06:44:20.377Z,29.90
2023-01-27T06:47:21.863Z,27.38
2023-01-27T06:50:23.903Z,25.30
2023-01-27T06:53:25.344Z,18.02
2023-01-27T06:56:26.806Z,27.10
2023-01-27T06:59:28.241Z,21.90
2023-01-27T07:02:29.781Z,33.58
2023-01-27T07:05:32.126Z,24.98
2023-01-27T07:08:33.557Z,27.50
2023-01-27T07:11:35.078Z,26.25
2023-01-27T07:14:36.646Z,27.80
2023-01-27T07:17:38.248Z,27.45
2023-01-27T07:20:40.561Z,23.27
2023-01-27T07:23:42.375Z,32.55
2023-01-27T07:26:45.135Z,28.95
2023-01-27T07:32:48.572Z,24.40
2023-01-27T07:35:50.175Z,19.48
2023-01-27T07:38:51.920Z,24.77
2023-01-27T07:41:53.384Z,29.77
2023-01-27T07:44:54.854Z,28.92
2023-01-27T07:48:06.544Z,25.80
2023-01-27T07:51:11.980Z,29.30
2023-01-27T07:54:13.418Z,32.85
2023-01-27T07:57:14.860Z,30.13
2023-01-27T08:00:16.680Z,35.13
2023-01-27T08:03:25.464Z,20.70
2023-01-27T08:06:26.977Z,27.33
2023-01-27T08:09:28.455Z,30.55
2023-01-27T08:12:30.145Z,29.52
2023-01-27T08:15:31.702Z,26.10
2023-01-27T08:18:36.014Z,28.17
2023-01-27T08:21:37.497Z,25.13
2023-01-27T08:24:38.963Z,32.10
2023-01-27T08:27:40.391Z,31.95
2023-01-27T08:30:41.882Z,26.70
2023-01-27T08:33:44.562Z,29.83
2023-01-27T08:36:46.117Z,24.73
2023-01-27T08:39:47.663Z,18.40
2023-01-27T08:42:50.714Z,15.43
2023-01-27T08:45:52.713Z,13.25
2023-01-27T08:48:54.158Z,14.45
2023-01-27T08:51:55.631Z,16.10
2023-01-27T08:54:57.783Z,9.93
2023-01-27T08:57:59.270Z,9.30
2023-01-27T09:01:02.220Z,9.90
2023-01-27T09:04:03.711Z,7.45
2023-01-27T09:07:05.215Z,6.28
2023-01-27T09:10:19.913Z,7.53
2023-01-27T09:13:24.368Z,8.30
2023-01-27T09:16:26.647Z,9.90
2023-01-27T09:19:28.234Z,10.07
2023-01-27T09:22:29.696Z,7.82
2023-01-27T09:25:31.210Z,8.93
2023-01-27T09:28:32.666Z,7.65
2023-01-27T09:31:34.246Z,11.57
2023-01-27T09:34:35.890Z,7.35
2023-01-27T09:37:43.406Z,8.35
2023-01-27T09:40:47.913Z,11.15
2023-01-27T09:44:12.713Z,8.95
2023-01-27T09:47:23.763Z,11.38
2023-01-27T09:50:48.841Z,9.10
2023-01-27T09:53:53.274Z,7.72
2023-01-27T09:56:54.654Z,10.55
2023-01-27T10:00:26.943Z,8.15
2023-01-27T10:03:34.393Z,11.23
2023-01-27T10:07:19.418Z,10.38
2023-01-27T10:10:42.099Z,11.70
2023-01-27T10:13:52.904Z,10.25
2023-01-27T10:17:03.322Z,12.10
2023-01-27T10:20:12.225Z,13.20
2023-01-27T10:23:24.492Z,16.65
2023-01-27T10:26:31.407Z,11.57
2023-01-27T10:29:46.521Z,11.77
2023-01-27T10:32:53.956Z,12.95
2023-01-27T10:35:59.201Z,10.68
2023-01-27T10:39:12.188Z,13.10
2023-01-27T10:42:24.246Z,11.82
2023-01-27T10:45:35.866Z,11.68
2023-01-27T10:48:43.445Z,11.82
2023-01-27T10:51:49.640Z,14.65
2023-01-27T10:54:55.757Z,8.57
2023-01-27T10:58:12.005Z,9.25
2023-01-27T11:01:22.652Z,12.45
2023-01-27T11:04:44.043Z,15.30
2023-01-27T11:07:52.530Z,14.30
2023-01-27T11:11:13.872Z,9.05
2023-01-27T11:14:32.224Z,9.02
2023-01-27T11:17:46.404Z,10.35
2023-01-27T11:20:54.410Z,9.95
2023-01-27T11:23:57.155Z,13.30
2023-01-27T11:27:16.579Z,9.15
2023-01-27T11:30:28.064Z,7.40
2023-01-27T11:33:52.169Z,11.82
2023-01-27T11:36:53.733Z,10.95
2023-01-27T11:39:55.194Z,13.20
2023-01-27T11:42:58.175Z,13.68
2023-01-27T11:46:04.057Z,13.13
2023-01-27T11:49:06.812Z,10.27
2023-01-27T11:55:25.102Z,7.72
2023-01-27T11:58:31.362Z,9.00
2023-01-27T12:01:48.435Z,9.95
2023-01-27T12:05:00.110Z,8.15
2023-01-27T12:08:02.703Z,10.60
2023-01-27T12:11:36.711Z,10.32
2023-01-27T12:14:38.252Z,11.15
2023-01-27T12:17:54.530Z,7.72
2023-01-27T12:21:00.320Z,9.48
2023-01-27T12:24:01.856Z,9.23
2023-01-27T12:27:03.566Z,10.23
2023-01-27T12:30:06.942Z,9.30
2023-01-27T12:33:13.195Z,10.70
2023-01-27T12:36:18.479Z,15.00
2023-01-27T12:39:45.562Z,12.90
2023-01-27T12:43:17.037Z,8.82
2023-01-27T12:46:28.265Z,7.72
2023-01-27T12:49:33.089Z,10.60
2023-01-27T12:52:34.587Z,9.13
2023-01-27T12:55:41.279Z,8.65
2023-01-27T12:58:54.908Z,11.60
2023-01-27T13:02:21.676Z,14.93
2023-01-27T13:05:23.120Z,12.80
2023-01-27T13:08:25.205Z,22.98
2023-01-27T13:11:37.708Z,10.82
2023-01-27T13:14:40.688Z,10.98
2023-01-27T13:17:48.355Z,11.60
2023-01-27T13:21:11.580Z,11.43
2023-01-27T13:24:15.467Z,8.15
2023-01-27T13:27:18.294Z,11.30
2023-01-27T13:33:51.053Z,13.38
2023-01-27T13:37:02.474Z,12.45
2023-01-27T13:40:20.232Z,22.10
2023-01-27T13:43:35.217Z,14.52
2023-01-27T13:46:37.630Z,13.18
2023-01-27T13:49:57.383Z,13.30
2023-01-27T13:52:59.191Z,13.10
2023-01-27T13:56:36.034Z,10.87
2023-01-27T13:59:55.947Z,10.13
2023-01-27T14:03:15.559Z,14.27
2023-01-27T14:06:43.188Z,15.52
2023-01-27T14:10:05.683Z,13.93
2023-01-27T14:13:32.556Z,13.20
2023-01-27T14:16:40.396Z,13.77
2023-01-27T14:19:48.299Z,12.30
2023-01-27T14:23:15.829Z,10.88
2023-01-27T14:26:23.955Z,26.83
2023-01-27T14:29:49.580Z,16.63
2023-01-27T14:33:15.670Z,15.25
2023-01-27T14:36:31.445Z,14.52
2023-01-27T14:39:53.185Z,11.75
2023-01-27T14:43:10.267Z,15.48
2023-01-27T14:46:17.851Z,19.42
2023-01-27T14:49:40.503Z,19.70
2023-01-27T14:52:56.058Z,13.50
2023-01-27T14:56:03.494Z,16.15
2023-01-27T14:59:07.876Z,12.10
2023-01-27T15:02:38.516Z,12.50
2023-01-27T15:06:01.923Z,12.65
2023-01-27T15:09:33.283Z,12.00
2023-01-27T15:12:47.981Z,11.38
2023-01-27T15:16:27.288Z,14.30
2023-01-27T15:19:40.744Z,9.75
2023-01-27T15:23:26.457Z,11.90
2023-01-27T15:26:27.997Z,15.07
2023-01-27T15:29:30.698Z,14.05
2023-01-27T15:35:41.596Z,14.55
2023-01-27T15:38:43.106Z,21.80
2023-01-27T15:42:25.851Z,12.52
2023-01-27T15:45:34.895Z,12.82
2023-01-27T15:48:36.479Z,14.48
2023-01-27T15:51:38.024Z,13.50
2023-01-27T15:54:40.318Z,15.02
2023-01-27T15:57:41.777Z,21.33
2023-01-27T16:00:49.414Z,18.40
2023-01-27T16:03:52.690Z,13.32
2023-01-27T16:07:01.917Z,18.08
2023-01-27T16:10:04.290Z,16.05
2023-01-27T16:13:14.799Z,18.10
2023-01-27T16:16:19.225Z,19.85
2023-01-27T16:19:27.043Z,13.00
2023-01-27T16:22:28.737Z,13.80
2023-01-27T16:25:39.586Z,13.43
2023-01-27T16:28:43.405Z,11.80
2023-01-27T16:31:44.909Z,13.02
2023-01-27T16:34:49.315Z,11.18
2023-01-27T16:38:16.949Z,16.83
2023-01-27T16:41:28.460Z,12.98
2023-01-27T16:44:41.462Z,11.35
2023-01-27T16:47:44.219Z,12.57
2023-01-27T16:53:48.509Z,11.95
2023-01-27T16:56:51.398Z,14.15
2023-01-27T16:59:52.871Z,14.43
2023-01-27T17:02:54.784Z,14.40
2023-01-27T17:05:56.305Z,10.45
2023-01-27T17:09:02.367Z,15.60
2023-01-27T17:12:03.985Z,12.98
2023-01-27T17:15:35.476Z,14.88
2023-01-27T17:18:51.799Z,10.75
2023-01-27T17:21:55.263Z,12.80
2023-01-27T17:27:58.726Z,10.73
2023-01-27T17:31:04.132Z,9.32
2023-01-27T17:34:07.213Z,16.90
2023-01-27T17:37:14.323Z,13.07
2023-01-27T17:40:20.883Z,12.50
2023-01-27T17:43:23.301Z,11.95
2023-01-27T17:46:24.948Z,11.68
2023-01-27T17:49:27.835Z,8.75
2023-01-27T17:52:31.060Z,9.27
2023-01-27T17:55:32.586Z,10.63
2023-01-27T17:58:34.096Z,6.85
2023-01-27T18:01:35.622Z,10.18
2023-01-27T18:04:39.396Z,11.57
2023-01-27T18:07:40.877Z,8.65
2023-01-27T18:10:45.758Z,8.63
2023-01-27T18:13:54.185Z,10.68
2023-01-27T18:17:05.954Z,8.40
2023-01-27T18:20:28.916Z,7.57
2023-01-27T18:23:34.626Z,9.38
2023-01-27T18:26:39.715Z,9.15
2023-01-27T18:29:41.300Z,5.10
2023-01-27T18:32:44.972Z,7.97
2023-01-27T18:35:56.527Z,8.98
2023-01-27T18:38:58.067Z,11.98
2023-01-27T18:42:00.201Z,9.98
2023-01-27T18:45:01.656Z,11.52
2023-01-27T18:48:03.850Z,7.60
2023-01-27T18:51:09.309Z,8.85
2023-01-27T18:54:11.879Z,5.32
2023-01-27T18:57:13.345Z,7.65
2023-01-27T19:00:18.942Z,10.77
2023-01-27T19:03:25.052Z,10.20
2023-01-27T19:06:26.632Z,11.00
2023-01-27T19:09:28.073Z,7.07
2023-01-27T19:12:29.539Z,6.50
2023-01-27T19:15:35.036Z,7.93
2023-01-27T19:18:37.636Z,7.40
2023-01-27T19:21:39.295Z,7.15
2023-01-27T19:24:40.873Z,6.80
2023-01-27T19:27:47.060Z,5.40
2023-01-27T19:30:48.563Z,6.32
2023-01-27T19:33:50.231Z,8.10
2023-01-27T19:36:51.783Z,6.78
2023-01-27T19:39:53.276Z,6.32
2023-01-27T19:42:54.816Z,6.13
2023-01-27T19:45:56.347Z,7.78
2023-01-27T19:48:57.979Z,7.05
2023-01-27T19:51:59.819Z,6.65
2023-01-27T19:55:01.776Z,9.03
2023-01-27T19:58:03.338Z,5.60
2023-01-27T20:01:04.901Z,7.35
2023-01-27T20:04:06.488Z,6.28
2023-01-27T20:07:11.899Z,6.18
2023-01-27T20:10:27.255Z,6.13
2023-01-27T20:13:28.789Z,7.40
2023-01-27T20:16:30.397Z,8.38
2023-01-27T20:19:31.849Z,8.10
2023-01-27T20:22:34.562Z,7.03
2023-01-27T20:28:37.320Z,5.97
2023-01-27T20:31:39.162Z,4.68
2023-01-27T20:34:40.845Z,4.30
2023-01-27T20:37:42.696Z,7.05
2023-01-27T20:40:44.176Z,4.70
2023-01-27T20:43:45.743Z,6.85
2023-01-27T20:46:47.230Z,7.78
2023-01-27T20:49:48.750Z,6.80
2023-01-27T20:52:50.325Z,6.60
2023-01-27T20:55:51.851Z,6.03
2023-01-27T20:58:54.283Z,7.63
2023-01-27T21:01:55.852Z,5.13
2023-01-27T21:04:57.418Z,4.93
2023-01-27T21:07:58.928Z,9.43
2023-01-27T21:11:01.356Z,7.68
2023-01-27T21:14:02.839Z,4.90
2023-01-27T21:17:05.102Z,6.22
2023-01-27T21:20:07.213Z,6.25
2023-01-27T21:23:08.927Z,5.17
2023-01-27T21:26:10.439Z,6.85
2023-01-27T21:29:12.084Z,10.00
2023-01-27T21:32:13.570Z,7.68
2023-01-27T21:35:15.332Z,5.93
2023-01-27T21:38:18.357Z,5.97
2023-01-27T21:44:59.019Z,12.68
2023-01-27T21:48:00.510Z,8.32
2023-01-27T21:51:01.992Z,4.75
2023-01-27T21:54:03.564Z,5.53
2023-01-27T21:57:05.006Z,5.18
2023-01-27T22:00:08.586Z,4.97
2023-01-27T22:03:10.062Z,5.50
2023-01-27T22:06:11.504Z,4.45
2023-01-27T22:09:12.986Z,4.50
2023-01-27T22:12:15.324Z,5.95
2023-01-27T22:15:18.195Z,4.43
2023-01-27T22:18:19.707Z,6.22
2023-01-27T22:21:21.150Z,6.05
2023-01-27T22:24:22.620Z,6.38
2023-01-27T22:27:24.063Z,6.53
2023-01-27T22:30:25.578Z,7.38
2023-01-27T22:33:27.095Z,4.60
2023-01-27T22:36:28.606Z,5.88
2023-01-27T22:39:30.112Z,7.93
2023-01-27T22:42:31.582Z,6.60
2023-01-27T22:45:33.094Z,5.10
2023-01-27T22:48:34.649Z,6.63
2023-01-27T22:51:36.237Z,6.15
2023-01-27T22:54:37.809Z,6.80
2023-01-27T22:57:39.315Z,5.15
2023-01-27T23:00:40.794Z,6.60
2023-01-27T23:03:42.238Z,6.13
2023-01-27T23:06:43.700Z,6.35
2023-01-27T23:09:45.140Z,4.90
2023-01-27T23:12:46.643Z,8.07
2023-01-27T23:15:48.085Z,5.57
2023-01-27T23:18:51.889Z,8.45
2023-01-27T23:21:53.340Z,7.63
2023-01-27T23:24:54.834Z,9.38
2023-01-27T23:27:56.296Z,8.02
2023-01-27T23:30:57.884Z,10.93
2023-01-27T23:33:59.406Z,5.97
2023-01-27T23:37:00.869Z,8.70
2023-01-27T23:40:02.350Z,5.68
2023-01-27T23:43:04.927Z,5.75
2023-01-27T23:46:06.435Z,6.50
2023-01-27T23:49:10.103Z,4.65
2023-01-27T23:52:11.569Z,5.80
2023-01-27T23:55:13.423Z,5.25
2023-01-27T23:58:15.131Z,3.15
